sensor_id;sensor_type;location;lat;lon;timestamp;pressure;altitude;pressure_sealevel;temperature;humidity
37291;BME280;23175;-33.706;151.094;2023-05-24T00:01:14;100918.29;;;14.90;30.86
37291;BME280;23175;-33.706;151.094;2023-05-24T00:03:44;100913.20;;;17.25;28.91
37291;BME280;23175;-33.706;151.094;2023-05-24T00:06:14;100910.03;;;18.04;26.68
37291;BME280;23175;-33.706;151.094;2023-05-24T00:08:43;100906.27;;;17.77;26.26
37291;BME280;23175;-33.706;151.094;2023-05-24T00:11:13;100903.54;;;14.70;28.47
37291;BME280;23175;-33.706;151.094;2023-05-24T00:13:43;100900.32;;;16.50;28.36
37291;BME280;23175;-33.706;151.094;2023-05-24T00:16:12;100903.09;;;15.95;29.66
37291;BME280;23175;-33.706;151.094;2023-05-24T00:18:42;100902.38;;;15.98;30.12
37291;BME280;23175;-33.706;151.094;2023-05-24T00:21:12;100897.37;;;17.16;27.54
37291;BME280;23175;-33.706;151.094;2023-05-24T00:23:42;100897.89;;;16.26;28.97
37291;BME280;23175;-33.706;151.094;2023-05-24T00:26:13;100893.16;;;14.56;30.84
37291;BME280;23175;-33.706;151.094;2023-05-24T00:28:44;100896.97;;;16.65;30.07
37291;BME280;23175;-33.706;151.094;2023-05-24T00:31:13;100895.56;;;15.28;31.67
37291;BME280;23175;-33.706;151.094;2023-05-24T00:33:43;100887.74;;;15.20;31.85
37291;BME280;23175;-33.706;151.094;2023-05-24T00:36:13;100883.72;;;16.99;29.41
37291;BME280;23175;-33.706;151.094;2023-05-24T00:38:43;100878.49;;;17.38;27.57
37291;BME280;23175;-33.706;151.094;2023-05-24T00:41:12;100877.46;;;18.17;26.21
37291;BME280;23175;-33.706;151.094;2023-05-24T00:43:43;100874.11;;;19.73;24.60
37291;BME280;23175;-33.706;151.094;2023-05-24T00:46:16;100872.29;;;19.39;24.79
37291;BME280;23175;-33.706;151.094;2023-05-24T00:48:46;100871.14;;;20.10;24.17
37291;BME280;23175;-33.706;151.094;2023-05-24T00:51:17;100866.91;;;20.52;23.98
37291;BME280;23175;-33.706;151.094;2023-05-24T00:53:48;100857.56;;;20.32;23.18
37291;BME280;23175;-33.706;151.094;2023-05-24T00:56:19;100846.68;;;20.33;22.89
37291;BME280;23175;-33.706;151.094;2023-05-24T00:58:51;100843.96;;;20.15;24.21
37291;BME280;23175;-33.706;151.094;2023-05-24T01:01:21;100839.65;;;19.71;24.60
37291;BME280;23175;-33.706;151.094;2023-05-24T01:03:51;100835.09;;;19.39;25.49
37291;BME280;23175;-33.706;151.094;2023-05-24T01:06:22;100827.40;;;18.86;26.05
37291;BME280;23175;-33.706;151.094;2023-05-24T01:09:07;100826.81;;;18.38;26.99
37291;BME280;23175;-33.706;151.094;2023-05-24T01:12:02;100821.77;;;18.55;26.78
37291;BME280;23175;-33.706;151.094;2023-05-24T01:14:43;100818.35;;;18.12;27.51
37291;BME280;23175;-33.706;151.094;2023-05-24T01:17:19;100817.07;;;16.78;28.43
37291;BME280;23175;-33.706;151.094;2023-05-24T01:19:55;100812.80;;;16.86;28.40
37291;BME280;23175;-33.706;151.094;2023-05-24T01:22:52;100812.89;;;16.96;28.83
37291;BME280;23175;-33.706;151.094;2023-05-24T01:25:47;100810.49;;;15.60;30.68
37291;BME280;23175;-33.706;151.094;2023-05-24T01:28:18;100809.14;;;13.52;32.99
37291;BME280;23175;-33.706;151.094;2023-05-24T01:30:50;100803.65;;;14.10;32.70
37291;BME280;23175;-33.706;151.094;2023-05-24T01:33:21;100796.19;;;14.32;32.33
37291;BME280;23175;-33.706;151.094;2023-05-24T01:35:51;100794.19;;;12.46;35.57
37291;BME280;23175;-33.706;151.094;2023-05-24T01:38:22;100789.55;;;14.80;33.19
37291;BME280;23175;-33.706;151.094;2023-05-24T01:41:01;100780.05;;;14.64;32.50
37291;BME280;23175;-33.706;151.094;2023-05-24T01:43:39;100771.54;;;17.82;30.23
37291;BME280;23175;-33.706;151.094;2023-05-24T01:46:19;100770.01;;;15.21;32.06
37291;BME280;23175;-33.706;151.094;2023-05-24T01:49:10;100759.72;;;17.08;30.12
37291;BME280;23175;-33.706;151.094;2023-05-24T01:51:48;100752.92;;;17.90;28.58
37291;BME280;23175;-33.706;151.094;2023-05-24T01:54:22;100746.60;;;17.76;28.78
37291;BME280;23175;-33.706;151.094;2023-05-24T01:56:53;100744.57;;;15.63;30.97
37291;BME280;23175;-33.706;151.094;2023-05-24T01:59:25;100739.77;;;15.69;29.89
37291;BME280;23175;-33.706;151.094;2023-05-24T02:01:57;100736.02;;;17.33;28.99
37291;BME280;23175;-33.706;151.094;2023-05-24T02:04:28;100730.18;;;16.02;29.72
37291;BME280;23175;-33.706;151.094;2023-05-24T02:06:59;100724.86;;;16.26;29.31
37291;BME280;23175;-33.706;151.094;2023-05-24T02:09:29;100722.71;;;15.43;30.97
37291;BME280;23175;-33.706;151.094;2023-05-24T02:12:00;100718.27;;;15.84;30.90
37291;BME280;23175;-33.706;151.094;2023-05-24T02:14:30;100714.73;;;17.01;29.37
37291;BME280;23175;-33.706;151.094;2023-05-24T02:17:00;100709.02;;;17.52;28.73
37291;BME280;23175;-33.706;151.094;2023-05-24T02:19:30;100707.90;;;16.04;29.61
37291;BME280;23175;-33.706;151.094;2023-05-24T02:22:00;100701.90;;;16.44;28.88
37291;BME280;23175;-33.706;151.094;2023-05-24T02:24:30;100699.52;;;17.46;25.74
37291;BME280;23175;-33.706;151.094;2023-05-24T02:27:01;100699.13;;;15.75;27.60
37291;BME280;23175;-33.706;151.094;2023-05-24T02:29:31;100694.20;;;16.28;28.71
37291;BME280;23175;-33.706;151.094;2023-05-24T02:32:01;100693.30;;;14.42;32.16
37291;BME280;23175;-33.706;151.094;2023-05-24T02:34:31;100685.70;;;17.05;29.36
37291;BME280;23175;-33.706;151.094;2023-05-24T02:37:01;100685.51;;;15.08;30.03
37291;BME280;23175;-33.706;151.094;2023-05-24T02:39:33;100685.06;;;15.14;28.39
37291;BME280;23175;-33.706;151.094;2023-05-24T02:42:03;100678.94;;;15.82;28.65
37291;BME280;23175;-33.706;151.094;2023-05-24T02:44:33;100677.75;;;16.57;29.50
37291;BME280;23175;-33.706;151.094;2023-05-24T02:47:04;100678.70;;;11.20;33.51
37291;BME280;23175;-33.706;151.094;2023-05-24T02:49:34;100675.16;;;13.62;30.87
37291;BME280;23175;-33.706;151.094;2023-05-24T02:52:05;100671.57;;;14.10;29.85
37291;BME280;23175;-33.706;151.094;2023-05-24T02:54:35;100671.20;;;13.54;31.03
37291;BME280;23175;-33.706;151.094;2023-05-24T02:57:05;100666.27;;;13.44;28.42
37291;BME280;23175;-33.706;151.094;2023-05-24T02:59:35;100666.69;;;13.69;29.68
37291;BME280;23175;-33.706;151.094;2023-05-24T03:02:05;100663.75;;;14.38;27.69
37291;BME280;23175;-33.706;151.094;2023-05-24T03:04:35;100658.55;;;12.92;29.82
37291;BME280;23175;-33.706;151.094;2023-05-24T03:07:06;100657.78;;;14.18;28.35
37291;BME280;23175;-33.706;151.094;2023-05-24T03:09:36;100655.08;;;16.86;28.73
37291;BME280;23175;-33.706;151.094;2023-05-24T03:12:06;100651.96;;;15.06;29.79
37291;BME280;23175;-33.706;151.094;2023-05-24T03:14:37;100642.42;;;16.73;26.79
37291;BME280;23175;-33.706;151.094;2023-05-24T03:17:06;100640.86;;;15.05;26.66
37291;BME280;23175;-33.706;151.094;2023-05-24T03:19:36;100638.58;;;12.57;28.72
37291;BME280;23175;-33.706;151.094;2023-05-24T03:22:06;100635.87;;;14.43;27.35
37291;BME280;23175;-33.706;151.094;2023-05-24T03:24:35;100634.71;;;16.47;26.30
37291;BME280;23175;-33.706;151.094;2023-05-24T03:27:05;100633.66;;;15.47;26.93
37291;BME280;23175;-33.706;151.094;2023-05-24T03:29:36;100630.70;;;16.64;26.29
37291;BME280;23175;-33.706;151.094;2023-05-24T03:32:06;100628.93;;;12.65;28.72
37291;BME280;23175;-33.706;151.094;2023-05-24T03:34:36;100624.32;;;13.92;28.70
37291;BME280;23175;-33.706;151.094;2023-05-24T03:37:06;100619.59;;;12.22;30.13
37291;BME280;23175;-33.706;151.094;2023-05-24T03:39:37;100619.44;;;15.74;27.30
37291;BME280;23175;-33.706;151.094;2023-05-24T03:42:09;100614.32;;;16.66;27.03
37291;BME280;23175;-33.706;151.094;2023-05-24T03:44:39;100612.96;;;18.10;24.73
37291;BME280;23175;-33.706;151.094;2023-05-24T03:47:09;100613.82;;;15.39;26.34
37291;BME280;23175;-33.706;151.094;2023-05-24T03:49:38;100610.23;;;14.22;27.95
37291;BME280;23175;-33.706;151.094;2023-05-24T03:52:08;100611.21;;;15.09;28.01
37291;BME280;23175;-33.706;151.094;2023-05-24T03:54:38;100602.75;;;17.02;27.16
37291;BME280;23175;-33.706;151.094;2023-05-24T03:57:08;100594.91;;;17.67;26.59
37291;BME280;23175;-33.706;151.094;2023-05-24T03:59:38;100592.73;;;18.02;26.41
37291;BME280;23175;-33.706;151.094;2023-05-24T04:02:07;100589.93;;;16.25;28.78
37291;BME280;23175;-33.706;151.094;2023-05-24T04:04:37;100588.50;;;16.30;28.39
37291;BME280;23175;-33.706;151.094;2023-05-24T04:07:07;100584.30;;;14.71;29.98
37291;BME280;23175;-33.706;151.094;2023-05-24T04:09:37;100580.52;;;16.08;26.45
37291;BME280;23175;-33.706;151.094;2023-05-24T04:12:06;100579.11;;;12.51;28.45
37291;BME280;23175;-33.706;151.094;2023-05-24T04:14:38;100572.87;;;14.12;26.59
37291;BME280;23175;-33.706;151.094;2023-05-24T04:17:08;100568.11;;;14.66;26.21
37291;BME280;23175;-33.706;151.094;2023-05-24T04:19:38;100570.41;;;16.31;26.72
37291;BME280;23175;-33.706;151.094;2023-05-24T04:22:07;100571.86;;;16.81;27.06
37291;BME280;23175;-33.706;151.094;2023-05-24T04:24:37;100573.63;;;15.77;28.65
37291;BME280;23175;-33.706;151.094;2023-05-24T04:27:07;100569.17;;;16.17;27.08
37291;BME280;23175;-33.706;151.094;2023-05-24T04:29:39;100571.92;;;16.24;30.03
37291;BME280;23175;-33.706;151.094;2023-05-24T04:32:16;100568.83;;;17.63;28.03
37291;BME280;23175;-33.706;151.094;2023-05-24T04:34:46;100562.96;;;17.60;26.51
37291;BME280;23175;-33.706;151.094;2023-05-24T04:37:16;100558.38;;;15.78;26.85
37291;BME280;23175;-33.706;151.094;2023-05-24T04:39:47;100560.66;;;18.05;26.33
37291;BME280;23175;-33.706;151.094;2023-05-24T04:42:17;100559.35;;;17.85;27.93
37291;BME280;23175;-33.706;151.094;2023-05-24T04:44:47;100558.59;;;15.83;28.36
37291;BME280;23175;-33.706;151.094;2023-05-24T04:47:18;100554.94;;;17.67;27.19
37291;BME280;23175;-33.706;151.094;2023-05-24T04:49:47;100553.62;;;16.97;28.70
37291;BME280;23175;-33.706;151.094;2023-05-24T04:52:17;100550.35;;;15.47;31.36
37291;BME280;23175;-33.706;151.094;2023-05-24T04:54:48;100550.76;;;15.54;30.78
37291;BME280;23175;-33.706;151.094;2023-05-24T04:57:18;100550.52;;;15.93;31.82
37291;BME280;23175;-33.706;151.094;2023-05-24T04:59:49;100548.68;;;16.84;32.47
37291;BME280;23175;-33.706;151.094;2023-05-24T05:02:19;100549.08;;;17.11;30.89
37291;BME280;23175;-33.706;151.094;2023-05-24T05:04:49;100546.32;;;16.63;30.95
37291;BME280;23175;-33.706;151.094;2023-05-24T05:07:19;100546.03;;;17.08;31.07
37291;BME280;23175;-33.706;151.094;2023-05-24T05:09:50;100548.18;;;17.19;32.77
37291;BME280;23175;-33.706;151.094;2023-05-24T05:12:20;100548.34;;;15.54;33.48
37291;BME280;23175;-33.706;151.094;2023-05-24T05:14:50;100541.14;;;18.09;31.19
37291;BME280;23175;-33.706;151.094;2023-05-24T05:17:20;100544.25;;;17.12;33.00
37291;BME280;23175;-33.706;151.094;2023-05-24T05:19:50;100542.71;;;16.77;32.37
37291;BME280;23175;-33.706;151.094;2023-05-24T05:22:20;100543.84;;;15.36;34.34
37291;BME280;23175;-33.706;151.094;2023-05-24T05:24:50;100542.44;;;17.41;31.93
37291;BME280;23175;-33.706;151.094;2023-05-24T05:27:20;100539.74;;;18.27;30.40
37291;BME280;23175;-33.706;151.094;2023-05-24T05:29:49;100542.97;;;16.35;33.73
37291;BME280;23175;-33.706;151.094;2023-05-24T05:32:24;100546.75;;;15.37;35.09
37291;BME280;23175;-33.706;151.094;2023-05-24T05:34:54;100547.69;;;15.51;35.96
37291;BME280;23175;-33.706;151.094;2023-05-24T05:37:24;100548.56;;;16.75;34.02
37291;BME280;23175;-33.706;151.094;2023-05-24T05:39:54;100551.03;;;15.94;32.83
37291;BME280;23175;-33.706;151.094;2023-05-24T05:42:25;100557.33;;;15.62;34.13
37291;BME280;23175;-33.706;151.094;2023-05-24T05:44:54;100552.99;;;16.40;33.01
37291;BME280;23175;-33.706;151.094;2023-05-24T05:47:24;100544.68;;;16.77;31.70
37291;BME280;23175;-33.706;151.094;2023-05-24T05:49:58;100549.31;;;16.21;31.67
37291;BME280;23175;-33.706;151.094;2023-05-24T05:52:28;100553.00;;;15.85;33.14
37291;BME280;23175;-33.706;151.094;2023-05-24T05:54:57;100554.04;;;16.83;34.28
37291;BME280;23175;-33.706;151.094;2023-05-24T05:57:28;100556.02;;;16.53;35.03
37291;BME280;23175;-33.706;151.094;2023-05-24T05:59:58;100556.32;;;15.18;37.12
37291;BME280;23175;-33.706;151.094;2023-05-24T06:02:28;100558.10;;;14.21;38.96
37291;BME280;23175;-33.706;151.094;2023-05-24T06:04:59;100553.86;;;15.61;37.36
37291;BME280;23175;-33.706;151.094;2023-05-24T06:07:29;100549.44;;;16.94;35.75
37291;BME280;23175;-33.706;151.094;2023-05-24T06:09:59;100549.49;;;17.74;35.09
37291;BME280;23175;-33.706;151.094;2023-05-24T06:12:29;100550.36;;;15.05;38.60
37291;BME280;23175;-33.706;151.094;2023-05-24T06:15:00;100548.77;;;14.61;38.51
37291;BME280;23175;-33.706;151.094;2023-05-24T06:17:30;100547.33;;;14.51;39.24
37291;BME280;23175;-33.706;151.094;2023-05-24T06:20:00;100543.76;;;16.58;37.16
37291;BME280;23175;-33.706;151.094;2023-05-24T06:22:30;100539.16;;;17.64;36.20
37291;BME280;23175;-33.706;151.094;2023-05-24T06:25:00;100544.27;;;15.56;37.82
37291;BME280;23175;-33.706;151.094;2023-05-24T06:27:31;100541.48;;;16.02;37.57
37291;BME280;23175;-33.706;151.094;2023-05-24T06:30:01;100545.85;;;16.36;36.68
37291;BME280;23175;-33.706;151.094;2023-05-24T06:32:31;100551.60;;;16.11;37.07
37291;BME280;23175;-33.706;151.094;2023-05-24T06:35:01;100550.91;;;15.91;36.63
37291;BME280;23175;-33.706;151.094;2023-05-24T06:37:31;100552.88;;;15.35;37.24
37291;BME280;23175;-33.706;151.094;2023-05-24T06:40:02;100558.67;;;16.54;35.79
37291;BME280;23175;-33.706;151.094;2023-05-24T06:42:32;100561.34;;;16.71;35.23
37291;BME280;23175;-33.706;151.094;2023-05-24T06:45:02;100560.30;;;16.51;35.50
37291;BME280;23175;-33.706;151.094;2023-05-24T06:47:33;100554.59;;;16.58;35.25
37291;BME280;23175;-33.706;151.094;2023-05-24T06:50:04;100558.89;;;16.64;35.58
37291;BME280;23175;-33.706;151.094;2023-05-24T06:52:34;100557.52;;;16.12;35.70
37291;BME280;23175;-33.706;151.094;2023-05-24T06:55:04;100557.13;;;15.93;36.02
37291;BME280;23175;-33.706;151.094;2023-05-24T06:57:34;100558.15;;;16.33;35.82
37291;BME280;23175;-33.706;151.094;2023-05-24T07:00:05;100559.32;;;16.03;36.25
37291;BME280;23175;-33.706;151.094;2023-05-24T07:02:35;100558.89;;;15.92;36.35
37291;BME280;23175;-33.706;151.094;2023-05-24T07:05:05;100557.09;;;15.37;36.64
37291;BME280;23175;-33.706;151.094;2023-05-24T07:07:35;100558.07;;;16.38;36.59
37291;BME280;23175;-33.706;151.094;2023-05-24T07:10:06;100556.53;;;15.50;37.06
37291;BME280;23175;-33.706;151.094;2023-05-24T07:12:37;100553.17;;;15.53;37.56
37291;BME280;23175;-33.706;151.094;2023-05-24T07:15:08;100553.48;;;15.77;37.41
37291;BME280;23175;-33.706;151.094;2023-05-24T07:17:38;100556.93;;;15.94;37.87
37291;BME280;23175;-33.706;151.094;2023-05-24T07:20:09;100558.87;;;15.17;38.01
37291;BME280;23175;-33.706;151.094;2023-05-24T07:22:39;100558.06;;;15.22;38.13
37291;BME280;23175;-33.706;151.094;2023-05-24T07:25:10;100560.35;;;15.04;37.33
37291;BME280;23175;-33.706;151.094;2023-05-24T07:27:40;100566.03;;;15.33;37.68
37291;BME280;23175;-33.706;151.094;2023-05-24T07:30:11;100569.91;;;14.78;38.31
37291;BME280;23175;-33.706;151.094;2023-05-24T07:32:42;100571.48;;;14.98;38.42
37291;BME280;23175;-33.706;151.094;2023-05-24T07:35:12;100573.22;;;15.07;38.29
37291;BME280;23175;-33.706;151.094;2023-05-24T07:37:42;100571.16;;;15.22;38.50
37291;BME280;23175;-33.706;151.094;2023-05-24T07:40:12;100571.86;;;14.46;38.49
37291;BME280;23175;-33.706;151.094;2023-05-24T07:42:42;100568.85;;;14.39;38.85
37291;BME280;23175;-33.706;151.094;2023-05-24T07:45:12;100569.37;;;14.40;38.82
37291;BME280;23175;-33.706;151.094;2023-05-24T07:47:42;100575.57;;;14.91;38.74
37291;BME280;23175;-33.706;151.094;2023-05-24T07:50:12;100575.78;;;14.86;38.47
37291;BME280;23175;-33.706;151.094;2023-05-24T07:52:42;100580.47;;;14.52;38.81
37291;BME280;23175;-33.706;151.094;2023-05-24T07:55:12;100583.60;;;14.19;39.02
37291;BME280;23175;-33.706;151.094;2023-05-24T07:57:42;100584.66;;;14.59;38.81
37291;BME280;23175;-33.706;151.094;2023-05-24T08:00:12;100581.11;;;14.29;38.92
37291;BME280;23175;-33.706;151.094;2023-05-24T08:02:42;100579.52;;;13.99;38.82
37291;BME280;23175;-33.706;151.094;2023-05-24T08:05:14;100582.81;;;13.96;39.61
37291;BME280;23175;-33.706;151.094;2023-05-24T08:07:44;100586.48;;;13.99;39.86
37291;BME280;23175;-33.706;151.094;2023-05-24T08:10:14;100592.45;;;14.04;39.90
37291;BME280;23175;-33.706;151.094;2023-05-24T08:12:44;100595.57;;;13.83;39.85
37291;BME280;23175;-33.706;151.094;2023-05-24T08:15:16;100597.47;;;13.77;39.57
37291;BME280;23175;-33.706;151.094;2023-05-24T08:17:45;100594.21;;;14.35;39.87
37291;BME280;23175;-33.706;151.094;2023-05-24T08:20:16;100594.25;;;14.06;39.89
37291;BME280;23175;-33.706;151.094;2023-05-24T08:22:46;100597.01;;;14.21;40.33
37291;BME280;23175;-33.706;151.094;2023-05-24T08:25:16;100600.97;;;13.53;40.41
37291;BME280;23175;-33.706;151.094;2023-05-24T08:27:46;100603.69;;;14.11;40.64
37291;BME280;23175;-33.706;151.094;2023-05-24T08:30:16;100608.30;;;13.69;40.86
37291;BME280;23175;-33.706;151.094;2023-05-24T08:32:46;100612.45;;;13.76;40.74
37291;BME280;23175;-33.706;151.094;2023-05-24T08:35:16;100607.91;;;13.33;40.57
37291;BME280;23175;-33.706;151.094;2023-05-24T08:37:46;100601.28;;;13.08;40.86
37291;BME280;23175;-33.706;151.094;2023-05-24T08:40:16;100602.81;;;13.02;41.06
37291;BME280;23175;-33.706;151.094;2023-05-24T08:42:46;100603.37;;;13.13;40.92
37291;BME280;23175;-33.706;151.094;2023-05-24T08:45:19;100604.15;;;13.61;39.94
37291;BME280;23175;-33.706;151.094;2023-05-24T08:47:50;100602.76;;;13.64;39.74
37291;BME280;23175;-33.706;151.094;2023-05-24T08:50:21;100595.70;;;13.33;40.13
37291;BME280;23175;-33.706;151.094;2023-05-24T08:52:52;100592.85;;;13.20;40.63
37291;BME280;23175;-33.706;151.094;2023-05-24T08:55:23;100584.50;;;13.29;40.55
37291;BME280;23175;-33.706;151.094;2023-05-24T08:57:55;100587.49;;;13.22;40.79
37291;BME280;23175;-33.706;151.094;2023-05-24T09:00:26;100589.59;;;13.18;40.43
37291;BME280;23175;-33.706;151.094;2023-05-24T09:02:58;100596.22;;;13.46;40.29
37291;BME280;23175;-33.706;151.094;2023-05-24T09:05:29;100605.67;;;13.21;40.55
37291;BME280;23175;-33.706;151.094;2023-05-24T09:08:02;100612.11;;;13.08;40.72
37291;BME280;23175;-33.706;151.094;2023-05-24T09:10:33;100617.35;;;13.16;40.79
37291;BME280;23175;-33.706;151.094;2023-05-24T09:13:03;100620.51;;;13.02;40.60
37291;BME280;23175;-33.706;151.094;2023-05-24T09:15:36;100628.00;;;12.65;41.37
37291;BME280;23175;-33.706;151.094;2023-05-24T09:18:07;100628.17;;;12.59;40.91
37291;BME280;23175;-33.706;151.094;2023-05-24T09:20:37;100625.66;;;13.20;40.73
37291;BME280;23175;-33.706;151.094;2023-05-24T09:23:06;100623.96;;;12.49;40.89
37291;BME280;23175;-33.706;151.094;2023-05-24T09:25:39;100622.19;;;12.95;41.09
37291;BME280;23175;-33.706;151.094;2023-05-24T09:28:14;100627.25;;;12.83;40.87
37291;BME280;23175;-33.706;151.094;2023-05-24T09:30:56;100629.91;;;12.81;40.83
37291;BME280;23175;-33.706;151.094;2023-05-24T09:33:30;100628.08;;;12.73;41.19
37291;BME280;23175;-33.706;151.094;2023-05-24T09:36:02;100631.00;;;13.02;41.02
37291;BME280;23175;-33.706;151.094;2023-05-24T09:38:32;100634.58;;;12.57;41.35
37291;BME280;23175;-33.706;151.094;2023-05-24T09:41:04;100638.72;;;12.53;41.27
37291;BME280;23175;-33.706;151.094;2023-05-24T09:43:45;100640.06;;;12.42;41.31
37291;BME280;23175;-33.706;151.094;2023-05-24T09:46:18;100639.91;;;12.77;41.37
37291;BME280;23175;-33.706;151.094;2023-05-24T09:48:57;100636.94;;;12.85;41.99
37291;BME280;23175;-33.706;151.094;2023-05-24T09:51:27;100632.75;;;12.63;41.53
37291;BME280;23175;-33.706;151.094;2023-05-24T09:54:00;100629.68;;;12.44;41.65
37291;BME280;23175;-33.706;151.094;2023-05-24T09:56:32;100628.32;;;12.56;41.71
37291;BME280;23175;-33.706;151.094;2023-05-24T09:59:07;100626.14;;;12.37;41.91
37291;BME280;23175;-33.706;151.094;2023-05-24T10:01:37;100624.67;;;12.70;42.44
37291;BME280;23175;-33.706;151.094;2023-05-24T10:04:07;100622.18;;;12.46;41.94
37291;BME280;23175;-33.706;151.094;2023-05-24T10:06:39;100621.07;;;12.82;42.07
37291;BME280;23175;-33.706;151.094;2023-05-24T10:09:11;100614.54;;;12.05;43.00
37291;BME280;23175;-33.706;151.094;2023-05-24T10:11:43;100610.67;;;12.21;42.69
37291;BME280;23175;-33.706;151.094;2023-05-24T10:14:14;100609.40;;;12.38;42.16
37291;BME280;23175;-33.706;151.094;2023-05-24T10:16:45;100614.17;;;12.40;42.30
37291;BME280;23175;-33.706;151.094;2023-05-24T10:19:15;100619.44;;;12.48;42.89
37291;BME280;23175;-33.706;151.094;2023-05-24T10:21:45;100618.48;;;12.35;41.98
37291;BME280;23175;-33.706;151.094;2023-05-24T10:24:20;100615.51;;;12.09;42.58
37291;BME280;23175;-33.706;151.094;2023-05-24T10:26:53;100614.79;;;11.70;42.77
37291;BME280;23175;-33.706;151.094;2023-05-24T10:29:31;100615.27;;;12.33;42.39
37291;BME280;23175;-33.706;151.094;2023-05-24T10:32:03;100618.42;;;12.41;42.07
37291;BME280;23175;-33.706;151.094;2023-05-24T10:34:33;100620.27;;;12.40;42.16
37291;BME280;23175;-33.706;151.094;2023-05-24T10:37:03;100619.25;;;11.92;42.18
37291;BME280;23175;-33.706;151.094;2023-05-24T10:39:34;100619.60;;;12.06;42.09
37291;BME280;23175;-33.706;151.094;2023-05-24T10:42:06;100622.23;;;11.62;42.22
37291;BME280;23175;-33.706;151.094;2023-05-24T10:44:35;100621.04;;;11.45;43.05
37291;BME280;23175;-33.706;151.094;2023-05-24T10:47:10;100618.94;;;11.58;42.17
37291;BME280;23175;-33.706;151.094;2023-05-24T10:49:48;100617.12;;;11.57;42.07
37291;BME280;23175;-33.706;151.094;2023-05-24T10:52:19;100616.55;;;12.04;42.38
37291;BME280;23175;-33.706;151.094;2023-05-24T10:55:06;100614.06;;;12.12;42.36
37291;BME280;23175;-33.706;151.094;2023-05-24T10:57:37;100612.80;;;12.06;42.41
37291;BME280;23175;-33.706;151.094;2023-05-24T11:00:44;100616.49;;;11.37;42.25
37291;BME280;23175;-33.706;151.094;2023-05-24T11:03:14;100618.26;;;11.90;42.52
37291;BME280;23175;-33.706;151.094;2023-05-24T11:05:52;100622.06;;;12.05;42.16
37291;BME280;23175;-33.706;151.094;2023-05-24T11:08:28;100622.53;;;11.84;42.07
37291;BME280;23175;-33.706;151.094;2023-05-24T11:11:10;100624.28;;;11.88;42.14
37291;BME280;23175;-33.706;151.094;2023-05-24T11:13:42;100627.03;;;11.55;42.66
37291;BME280;23175;-33.706;151.094;2023-05-24T11:16:33;100626.53;;;11.56;42.47
37291;BME280;23175;-33.706;151.094;2023-05-24T11:19:15;100626.41;;;11.25;43.13
37291;BME280;23175;-33.706;151.094;2023-05-24T11:21:47;100629.64;;;11.71;42.30
37291;BME280;23175;-33.706;151.094;2023-05-24T11:24:18;100630.39;;;11.64;42.44
37291;BME280;23175;-33.706;151.094;2023-05-24T11:26:50;100630.77;;;12.11;42.10
37291;BME280;23175;-33.706;151.094;2023-05-24T11:29:21;100633.28;;;11.74;42.11
37291;BME280;23175;-33.706;151.094;2023-05-24T11:31:53;100635.10;;;11.09;43.02
37291;BME280;23175;-33.706;151.094;2023-05-24T11:34:23;100636.25;;;11.41;42.82
37291;BME280;23175;-33.706;151.094;2023-05-24T11:36:54;100637.08;;;11.66;42.46
37291;BME280;23175;-33.706;151.094;2023-05-24T11:39:27;100632.25;;;11.46;42.51
37291;BME280;23175;-33.706;151.094;2023-05-24T11:41:58;100628.41;;;11.27;42.83
37291;BME280;23175;-33.706;151.094;2023-05-24T11:44:30;100623.35;;;11.35;42.77
37291;BME280;23175;-33.706;151.094;2023-05-24T11:47:03;100618.98;;;12.05;42.54
37291;BME280;23175;-33.706;151.094;2023-05-24T11:49:33;100612.11;;;11.02;43.04
37291;BME280;23175;-33.706;151.094;2023-05-24T11:52:03;100611.77;;;11.61;42.94
37291;BME280;23175;-33.706;151.094;2023-05-24T11:54:33;100608.92;;;11.65;42.95
37291;BME280;23175;-33.706;151.094;2023-05-24T11:57:05;100606.78;;;11.01;42.67
37291;BME280;23175;-33.706;151.094;2023-05-24T11:59:36;100607.19;;;11.30;42.63
37291;BME280;23175;-33.706;151.094;2023-05-24T12:02:06;100605.73;;;11.21;42.25
37291;BME280;23175;-33.706;151.094;2023-05-24T12:04:37;100600.49;;;11.08;42.76
37291;BME280;23175;-33.706;151.094;2023-05-24T12:07:11;100602.19;;;10.60;44.07
37291;BME280;23175;-33.706;151.094;2023-05-24T12:09:43;100604.14;;;11.35;44.06
37291;BME280;23175;-33.706;151.094;2023-05-24T12:12:14;100596.96;;;11.22;43.72
37291;BME280;23175;-33.706;151.094;2023-05-24T12:14:44;100594.53;;;11.50;43.73
37291;BME280;23175;-33.706;151.094;2023-05-24T12:17:15;100592.12;;;11.31;43.86
37291;BME280;23175;-33.706;151.094;2023-05-24T12:19:49;100592.11;;;11.35;43.83
37291;BME280;23175;-33.706;151.094;2023-05-24T12:22:24;100590.39;;;10.96;43.74
37291;BME280;23175;-33.706;151.094;2023-05-24T12:24:55;100582.63;;;11.09;43.32
37291;BME280;23175;-33.706;151.094;2023-05-24T12:27:28;100587.57;;;10.57;43.69
37291;BME280;23175;-33.706;151.094;2023-05-24T12:30:06;100587.27;;;11.28;43.65
37291;BME280;23175;-33.706;151.094;2023-05-24T12:32:38;100588.29;;;11.06;43.99
37291;BME280;23175;-33.706;151.094;2023-05-24T12:35:13;100587.72;;;10.46;43.60
37291;BME280;23175;-33.706;151.094;2023-05-24T12:37:44;100589.49;;;10.79;43.66
37291;BME280;23175;-33.706;151.094;2023-05-24T12:40:17;100589.17;;;11.18;43.60
37291;BME280;23175;-33.706;151.094;2023-05-24T12:42:50;100585.51;;;11.01;43.81